sensor_id;sensor_type;location;lat;lon;timestamp;temperature;humidity
9772;DHT22;4925;52.588;13.370;2022-07-23T00:00:39;19.10;99.90
9772;DHT22;4925;52.588;13.370;2022-07-23T00:03:05;18.90;99.90
9772;DHT22;4925;52.588;13.370;2022-07-23T00:05:31;18.90;99.90
9772;DHT22;4925;52.588;13.370;2022-07-23T00:07:57;18.90;99.90
9772;DHT22;4925;52.588;13.370;2022-07-23T00:10:23;18.90;99.90
9772;DHT22;4925;52.588;13.370;2022-07-23T00:12:48;18.90;99.90
9772;DHT22;4925;52.588;13.370;2022-07-23T00:15:14;18.90;99.90
9772;DHT22;4925;52.588;13.370;2022-07-23T00:17:39;19.00;99.90
9772;DHT22;4925;52.588;13.370;2022-07-23T00:20:06;18.80;99.90
9772;DHT22;4925;52.588;13.370;2022-07-23T00:22:31;18.80;99.90
9772;DHT22;4925;52.588;13.370;2022-07-23T00:24:57;18.80;99.90
9772;DHT22;4925;52.588;13.370;2022-07-23T00:27:24;18.80;99.90
9772;DHT22;4925;52.588;13.370;2022-07-23T00:29:49;18.80;99.90
9772;DHT22;4925;52.588;13.370;2022-07-23T00:32:15;18.70;99.90
9772;DHT22;4925;52.588;13.370;2022-07-23T00:34:41;18.70;99.90
9772;DHT22;4925;52.588;13.370;2022-07-23T00:37:06;18.80;99.90
9772;DHT22;4925;52.588;13.370;2022-07-23T00:39:32;18.70;99.90
9772;DHT22;4925;52.588;13.370;2022-07-23T00:41:57;18.70;99.90
9772;DHT22;4925;52.588;13.370;2022-07-23T00:44:25;18.70;99.90
9772;DHT22;4925;52.588;13.370;2022-07-23T00:46:57;18.60;99.90
9772;DHT22;4925;52.588;13.370;2022-07-23T00:49:24;18.70;99.90
9772;DHT22;4925;52.588;13.370;2022-07-23T00:51:50;18.70;99.90
9772;DHT22;4925;52.588;13.370;2022-07-23T00:54:17;18.70;99.90
9772;DHT22;4925;52.588;13.370;2022-07-23T00:56:44;18.60;99.90
9772;DHT22;4925;52.588;13.370;2022-07-23T00:59:10;18.50;99.90
9772;DHT22;4925;52.588;13.370;2022-07-23T01:01:36;18.50;99.90
9772;DHT22;4925;52.588;13.370;2022-07-23T01:04:01;18.50;99.90
9772;DHT22;4925;52.588;13.370;2022-07-23T01:06:27;18.50;99.90
9772;DHT22;4925;52.588;13.370;2022-07-23T01:08:54;18.40;99.90
9772;DHT22;4925;52.588;13.370;2022-07-23T01:11:20;18.40;99.90
9772;DHT22;4925;52.588;13.370;2022-07-23T01:13:46;18.70;99.90
9772;DHT22;4925;52.588;13.370;2022-07-23T01:16:12;18.50;99.90
9772;DHT22;4925;52.588;13.370;2022-07-23T01:18:38;18.30;99.90
9772;DHT22;4925;52.588;13.370;2022-07-23T01:21:03;18.30;99.90
9772;DHT22;4925;52.588;13.370;2022-07-23T01:23:29;18.30;99.90
9772;DHT22;4925;52.588;13.370;2022-07-23T01:25:55;18.20;99.90
9772;DHT22;4925;52.588;13.370;2022-07-23T01:28:21;18.20;99.90
9772;DHT22;4925;52.588;13.370;2022-07-23T01:30:47;18.20;99.90
9772;DHT22;4925;52.588;13.370;2022-07-23T01:33:13;18.20;99.90
9772;DHT22;4925;52.588;13.370;2022-07-23T01:35:39;18.10;99.90
9772;DHT22;4925;52.588;13.370;2022-07-23T01:38:05;18.10;99.90
9772;DHT22;4925;52.588;13.370;2022-07-23T01:40:30;18.10;99.90
9772;DHT22;4925;52.588;13.370;2022-07-23T01:42:56;18.00;99.90
9772;DHT22;4925;52.588;13.370;2022-07-23T01:45:21;18.10;99.90
9772;DHT22;4925;52.588;13.370;2022-07-23T01:47:47;18.00;99.90
9772;DHT22;4925;52.588;13.370;2022-07-23T01:50:13;18.00;99.90
9772;DHT22;4925;52.588;13.370;2022-07-23T01:52:38;17.90;99.90
9772;DHT22;4925;52.588;13.370;2022-07-23T01:55:04;17.90;99.90
9772;DHT22;4925;52.588;13.370;2022-07-23T01:57:31;17.90;99.90
9772;DHT22;4925;52.588;13.370;2022-07-23T01:59:56;17.80;99.90
9772;DHT22;4925;52.588;13.370;2022-07-23T02:02:22;18.30;99.90
9772;DHT22;4925;52.588;13.370;2022-07-23T02:04:48;17.80;99.90
9772;DHT22;4925;52.588;13.370;2022-07-23T02:07:13;17.80;99.90
9772;DHT22;4925;52.588;13.370;2022-07-23T02:09:39;17.90;99.90
9772;DHT22;4925;52.588;13.370;2022-07-23T02:12:04;17.90;99.90
9772;DHT22;4925;52.588;13.370;2022-07-23T02:14:30;17.90;99.90
9772;DHT22;4925;52.588;13.370;2022-07-23T02:16:56;17.80;99.90
9772;DHT22;4925;52.588;13.370;2022-07-23T02:19:21;17.80;99.90
9772;DHT22;4925;52.588;13.370;2022-07-23T02:21:47;17.80;99.90
9772;DHT22;4925;52.588;13.370;2022-07-23T02:24:12;17.80;99.90
9772;DHT22;4925;52.588;13.370;2022-07-23T02:26:38;17.80;99.90
9772;DHT22;4925;52.588;13.370;2022-07-23T02:29:04;17.80;99.90
9772;DHT22;4925;52.588;13.370;2022-07-23T02:31:30;17.70;99.90
9772;DHT22;4925;52.588;13.370;2022-07-23T02:33:56;17.70;99.90
9772;DHT22;4925;52.588;13.370;2022-07-23T02:36:23;18.30;99.90
9772;DHT22;4925;52.588;13.370;2022-07-23T02:38:48;17.50;99.90
9772;DHT22;4925;52.588;13.370;2022-07-23T02:41:14;17.60;99.90
9772;DHT22;4925;52.588;13.370;2022-07-23T02:43:40;17.50;99.90
9772;DHT22;4925;52.588;13.370;2022-07-23T02:46:05;17.50;99.90
9772;DHT22;4925;52.588;13.370;2022-07-23T02:48:31;17.50;99.90
9772;DHT22;4925;52.588;13.370;2022-07-23T02:50:56;17.50;99.90
9772;DHT22;4925;52.588;13.370;2022-07-23T02:53:25;17.40;99.90
9772;DHT22;4925;52.588;13.370;2022-07-23T02:55:51;17.40;99.90
9772;DHT22;4925;52.588;13.370;2022-07-23T02:58:17;17.40;99.90
9772;DHT22;4925;52.588;13.370;2022-07-23T03:03:09;17.30;99.90
9772;DHT22;4925;52.588;13.370;2022-07-23T03:05:34;17.30;99.90
9772;DHT22;4925;52.588;13.370;2022-07-23T03:08:00;17.20;99.90
9772;DHT22;4925;52.588;13.370;2022-07-23T03:10:26;17.20;99.90
9772;DHT22;4925;52.588;13.370;2022-07-23T03:12:52;17.20;99.90
9772;DHT22;4925;52.588;13.370;2022-07-23T03:15:17;17.00;99.90
9772;DHT22;4925;52.588;13.370;2022-07-23T03:17:43;17.00;99.90
9772;DHT22;4925;52.588;13.370;2022-07-23T03:20:09;16.90;99.90
9772;DHT22;4925;52.588;13.370;2022-07-23T03:22:35;16.90;99.90
9772;DHT22;4925;52.588;13.370;2022-07-23T03:25:01;16.80;99.90
9772;DHT22;4925;52.588;13.370;2022-07-23T03:27:29;16.80;99.90
9772;DHT22;4925;52.588;13.370;2022-07-23T03:29:57;16.80;99.90
9772;DHT22;4925;52.588;13.370;2022-07-23T03:32:23;16.80;99.90
9772;DHT22;4925;52.588;13.370;2022-07-23T03:37:15;16.80;99.90
9772;DHT22;4925;52.588;13.370;2022-07-23T03:39:41;16.70;99.90
9772;DHT22;4925;52.588;13.370;2022-07-23T03:42:07;16.70;99.90
9772;DHT22;4925;52.588;13.370;2022-07-23T03:44:33;16.70;99.90
9772;DHT22;4925;52.588;13.370;2022-07-23T03:46:59;16.70;99.90
9772;DHT22;4925;52.588;13.370;2022-07-23T03:49:25;16.70;99.90
9772;DHT22;4925;52.588;13.370;2022-07-23T03:51:51;16.70;99.90
9772;DHT22;4925;52.588;13.370;2022-07-23T03:54:16;16.70;99.90
9772;DHT22;4925;52.588;13.370;2022-07-23T03:56:42;18.80;99.90
9772;DHT22;4925;52.588;13.370;2022-07-23T03:59:08;16.80;99.90
9772;DHT22;4925;52.588;13.370;2022-07-23T04:01:34;16.80;99.90
9772;DHT22;4925;52.588;13.370;2022-07-23T04:03:59;16.80;99.90
9772;DHT22;4925;52.588;13.370;2022-07-23T04:06:25;16.80;99.90
9772;DHT22;4925;52.588;13.370;2022-07-23T04:08:51;16.90;99.90
9772;DHT22;4925;52.588;13.370;2022-07-23T04:11:16;16.90;99.90
9772;DHT22;4925;52.588;13.370;2022-07-23T04:13:42;16.90;99.90
9772;DHT22;4925;52.588;13.370;2022-07-23T04:16:07;16.90;99.90
9772;DHT22;4925;52.588;13.370;2022-07-23T04:18:33;16.90;99.90
9772;DHT22;4925;52.588;13.370;2022-07-23T04:20:58;16.90;99.90
9772;DHT22;4925;52.588;13.370;2022-07-23T04:23:24;16.90;99.90
9772;DHT22;4925;52.588;13.370;2022-07-23T04:25:50;16.90;99.90
9772;DHT22;4925;52.588;13.370;2022-07-23T04:28:15;16.90;99.90
9772;DHT22;4925;52.588;13.370;2022-07-23T04:30:41;16.90;99.90
9772;DHT22;4925;52.588;13.370;2022-07-23T04:33:06;16.80;99.90
9772;DHT22;4925;52.588;13.370;2022-07-23T04:35:36;16.80;99.90
9772;DHT22;4925;52.588;13.370;2022-07-23T04:38:03;16.80;99.90
9772;DHT22;4925;52.588;13.370;2022-07-23T04:40:29;16.70;99.90
9772;DHT22;4925;52.588;13.370;2022-07-23T04:42:54;16.60;99.90
9772;DHT22;4925;52.588;13.370;2022-07-23T04:45:20;16.50;99.90
9772;DHT22;4925;52.588;13.370;2022-07-23T04:47:46;16.40;99.90
9772;DHT22;4925;52.588;13.370;2022-07-23T04:50:11;16.50;99.90
9772;DHT22;4925;52.588;13.370;2022-07-23T04:52:37;17.10;99.90
9772;DHT22;4925;52.588;13.370;2022-07-23T04:55:03;17.70;99.90
9772;DHT22;4925;52.588;13.370;2022-07-23T04:57:28;17.70;99.90
9772;DHT22;4925;52.588;13.370;2022-07-23T04:59:54;17.70;99.90
9772;DHT22;4925;52.588;13.370;2022-07-23T05:02:19;17.80;99.90
9772;DHT22;4925;52.588;13.370;2022-07-23T05:04:45;17.90;99.90
9772;DHT22;4925;52.588;13.370;2022-07-23T05:07:10;18.00;99.90
9772;DHT22;4925;52.588;13.370;2022-07-23T05:09:36;18.20;99.90
9772;DHT22;4925;52.588;13.370;2022-07-23T05:12:02;18.30;99.90
9772;DHT22;4925;52.588;13.370;2022-07-23T05:14:27;18.40;99.90
9772;DHT22;4925;52.588;13.370;2022-07-23T05:16:53;18.30;99.90
9772;DHT22;4925;52.588;13.370;2022-07-23T05:19:18;18.10;99.90
9772;DHT22;4925;52.588;13.370;2022-07-23T05:21:44;18.10;99.90
9772;DHT22;4925;52.588;13.370;2022-07-23T05:24:09;18.10;99.90
9772;DHT22;4925;52.588;13.370;2022-07-23T05:26:35;18.20;99.90
9772;DHT22;4925;52.588;13.370;2022-07-23T05:29:00;18.10;99.90
9772;DHT22;4925;52.588;13.370;2022-07-23T05:31:26;18.00;99.90
9772;DHT22;4925;52.588;13.370;2022-07-23T05:33:51;17.80;99.90
9772;DHT22;4925;52.588;13.370;2022-07-23T05:36:17;17.70;99.90
9772;DHT22;4925;52.588;13.370;2022-07-23T05:38:42;17.10;99.90
9772;DHT22;4925;52.588;13.370;2022-07-23T05:41:08;17.10;99.90
9772;DHT22;4925;52.588;13.370;2022-07-23T05:43:33;17.00;99.90
9772;DHT22;4925;52.588;13.370;2022-07-23T05:45:59;16.80;99.90
9772;DHT22;4925;52.588;13.370;2022-07-23T05:48:24;16.80;99.90
9772;DHT22;4925;52.588;13.370;2022-07-23T05:50:50;16.70;99.90
9772;DHT22;4925;52.588;13.370;2022-07-23T06:00:34;16.70;99.90
9772;DHT22;4925;52.588;13.370;2022-07-23T06:03:00;16.70;99.90
9772;DHT22;4925;52.588;13.370;2022-07-23T06:05:26;16.70;99.90
9772;DHT22;4925;52.588;13.370;2022-07-23T06:07:51;16.60;99.90
9772;DHT22;4925;52.588;13.370;2022-07-23T06:10:18;16.60;99.90
9772;DHT22;4925;52.588;13.370;2022-07-23T06:12:44;16.60;99.90
9772;DHT22;4925;52.588;13.370;2022-07-23T06:15:10;16.60;99.90
9772;DHT22;4925;52.588;13.370;2022-07-23T06:17:36;16.50;99.90
9772;DHT22;4925;52.588;13.370;2022-07-23T06:20:07;16.40;99.90
9772;DHT22;4925;52.588;13.370;2022-07-23T06:22:34;16.40;99.90
9772;DHT22;4925;52.588;13.370;2022-07-23T06:24:59;16.40;99.90
9772;DHT22;4925;52.588;13.370;2022-07-23T06:27:25;16.40;99.90
9772;DHT22;4925;52.588;13.370;2022-07-23T06:29:50;16.40;99.90
9772;DHT22;4925;52.588;13.370;2022-07-23T06:32:16;16.40;99.90
9772;DHT22;4925;52.588;13.370;2022-07-23T06:34:41;16.40;99.90
9772;DHT22;4925;52.588;13.370;2022-07-23T06:37:07;16.50;99.90
9772;DHT22;4925;52.588;13.370;2022-07-23T06:39:32;16.50;99.90
9772;DHT22;4925;52.588;13.370;2022-07-23T06:41:58;16.50;99.90
9772;DHT22;4925;52.588;13.370;2022-07-23T06:44:24;16.50;99.90
9772;DHT22;4925;52.588;13.370;2022-07-23T06:46:50;17.50;99.90
9772;DHT22;4925;52.588;13.370;2022-07-23T06:49:15;16.60;99.90
9772;DHT22;4925;52.588;13.370;2022-07-23T06:51:41;16.60;99.90
9772;DHT22;4925;52.588;13.370;2022-07-23T06:54:06;16.60;99.90
9772;DHT22;4925;52.588;13.370;2022-07-23T06:56:32;16.60;99.90
9772;DHT22;4925;52.588;13.370;2022-07-23T06:58:57;16.40;99.90
9772;DHT22;4925;52.588;13.370;2022-07-23T07:01:23;16.50;99.90
9772;DHT22;4925;52.588;13.370;2022-07-23T07:03:48;16.40;99.90
9772;DHT22;4925;52.588;13.370;2022-07-23T07:06:14;16.40;99.90
9772;DHT22;4925;52.588;13.370;2022-07-23T07:08:40;16.40;99.90
9772;DHT22;4925;52.588;13.370;2022-07-23T07:11:05;16.40;99.90
9772;DHT22;4925;52.588;13.370;2022-07-23T07:13:31;16.50;99.90
9772;DHT22;4925;52.588;13.370;2022-07-23T07:15:56;16.50;99.90
9772;DHT22;4925;52.588;13.370;2022-07-23T07:18:22;16.50;99.90
9772;DHT22;4925;52.588;13.370;2022-07-23T07:20:48;16.60;99.90
9772;DHT22;4925;52.588;13.370;2022-07-23T07:23:13;16.70;99.90
9772;DHT22;4925;52.588;13.370;2022-07-23T07:25:39;16.70;99.90
9772;DHT22;4925;52.588;13.370;2022-07-23T07:28:05;16.80;99.90
9772;DHT22;4925;52.588;13.370;2022-07-23T07:30:30;16.90;99.90
9772;DHT22;4925;52.588;13.370;2022-07-23T07:32:56;17.00;99.90
9772;DHT22;4925;52.588;13.370;2022-07-23T07:35:21;17.10;99.90
9772;DHT22;4925;52.588;13.370;2022-07-23T07:37:47;17.20;99.90
9772;DHT22;4925;52.588;13.370;2022-07-23T07:40:12;17.30;99.90
9772;DHT22;4925;52.588;13.370;2022-07-23T07:42:48;17.30;99.90
9772;DHT22;4925;52.588;13.370;2022-07-23T07:45:14;17.30;99.90
9772;DHT22;4925;52.588;13.370;2022-07-23T07:47:41;17.40;99.90
9772;DHT22;4925;52.588;13.370;2022-07-23T07:50:07;17.50;99.90
9772;DHT22;4925;52.588;13.370;2022-07-23T07:52:34;17.60;99.90
9772;DHT22;4925;52.588;13.370;2022-07-23T07:55:02;17.60;99.90
9772;DHT22;4925;52.588;13.370;2022-07-23T07:57:27;17.70;99.90
9772;DHT22;4925;52.588;13.370;2022-07-23T07:59:53;17.70;99.90
9772;DHT22;4925;52.588;13.370;2022-07-23T08:02:18;17.70;99.90
9772;DHT22;4925;52.588;13.370;2022-07-23T08:07:10;17.70;99.90
9772;DHT22;4925;52.588;13.370;2022-07-23T08:09:36;17.90;99.90
9772;DHT22;4925;52.588;13.370;2022-07-23T08:12:02;18.00;99.90
9772;DHT22;4925;52.588;13.370;2022-07-23T08:14:28;17.90;99.90
9772;DHT22;4925;52.588;13.370;2022-07-23T08:16:53;18.10;99.90
9772;DHT22;4925;52.588;13.370;2022-07-23T08:19:18;18.10;99.90
9772;DHT22;4925;52.588;13.370;2022-07-23T08:21:44;18.10;99.90
9772;DHT22;4925;52.588;13.370;2022-07-23T08:24:09;18.20;99.90
9772;DHT22;4925;52.588;13.370;2022-07-23T08:26:35;18.40;99.90
9772;DHT22;4925;52.588;13.370;2022-07-23T08:29:00;18.70;99.90
9772;DHT22;4925;52.588;13.370;2022-07-23T08:31:26;18.70;99.90
9772;DHT22;4925;52.588;13.370;2022-07-23T08:33:51;18.80;99.90
9772;DHT22;4925;52.588;13.370;2022-07-23T08:36:17;18.90;99.90
9772;DHT22;4925;52.588;13.370;2022-07-23T08:38:43;19.10;99.90
9772;DHT22;4925;52.588;13.370;2022-07-23T08:41:09;19.10;99.90
9772;DHT22;4925;52.588;13.370;2022-07-23T08:43:35;19.10;99.90
9772;DHT22;4925;52.588;13.370;2022-07-23T08:46:02;19.10;99.90
9772;DHT22;4925;52.588;13.370;2022-07-23T08:48:31;19.10;99.90
9772;DHT22;4925;52.588;13.370;2022-07-23T08:50:59;19.20;99.90
9772;DHT22;4925;52.588;13.370;2022-07-23T08:53:26;19.30;99.90
9772;DHT22;4925;52.588;13.370;2022-07-23T08:55:54;19.50;99.90
9772;DHT22;4925;52.588;13.370;2022-07-23T08:58:21;19.60;99.90
9772;DHT22;4925;52.588;13.370;2022-07-23T09:00:47;19.60;99.90
9772;DHT22;4925;52.588;13.370;2022-07-23T09:03:27;19.90;99.90
9772;DHT22;4925;52.588;13.370;2022-07-23T09:05:54;19.90;99.90
9772;DHT22;4925;52.588;13.370;2022-07-23T09:08:25;20.10;99.90
9772;DHT22;4925;52.588;13.370;2022-07-23T09:10:59;20.20;99.90
9772;DHT22;4925;52.588;13.370;2022-07-23T09:13:41;20.30;99.90
9772;DHT22;4925;52.588;13.370;2022-07-23T09:16:23;20.40;99.90
9772;DHT22;4925;52.588;13.370;2022-07-23T09:18:54;20.60;99.90
9772;DHT22;4925;52.588;13.370;2022-07-23T09:21:40;20.60;99.90
9772;DHT22;4925;52.588;13.370;2022-07-23T09:24:10;20.70;99.90
9772;DHT22;4925;52.588;13.370;2022-07-23T09:26:38;20.80;99.90
9772;DHT22;4925;52.588;13.370;2022-07-23T09:36:49;21.50;99.90
9772;DHT22;4925;52.588;13.370;2022-07-23T09:39:16;21.60;99.90
9772;DHT22;4925;52.588;13.370;2022-07-23T09:41:47;21.70;99.90
9772;DHT22;4925;52.588;13.370;2022-07-23T09:44:19;21.60;99.90
9772;DHT22;4925;52.588;13.370;2022-07-23T09:46:46;21.80;99.90
9772;DHT22;4925;52.588;13.370;2022-07-23T09:49:15;22.00;99.90
9772;DHT22;4925;52.588;13.370;2022-07-23T09:51:50;22.00;99.90
9772;DHT22;4925;52.588;13.370;2022-07-23T09:54:27;22.20;99.90
9772;DHT22;4925;52.588;13.370;2022-07-23T09:56:55;22.20;99.90
9772;DHT22;4925;52.588;13.370;2022-07-23T09:59:27;22.40;99.90
9772;DHT22;4925;52.588;13.370;2022-07-23T10:01:55;22.50;99.90
9772;DHT22;4925;52.588;13.370;2022-07-23T10:04:23;22.70;99.90
9772;DHT22;4925;52.588;13.370;2022-07-23T10:06:52;22.80;99.90
9772;DHT22;4925;52.588;13.370;2022-07-23T10:09:24;22.90;99.90
9772;DHT22;4925;52.588;13.370;2022-07-23T10:11:50;23.00;99.90
9772;DHT22;4925;52.588;13.370;2022-07-23T10:14:17;23.10;99.90
9772;DHT22;4925;52.588;13.370;2022-07-23T10:16:43;23.00;99.90
9772;DHT22;4925;52.588;13.370;2022-07-23T10:19:09;22.80;99.90
9772;DHT22;4925;52.588;13.370;2022-07-23T10:21:45;22.90;99.90
9772;DHT22;4925;52.588;13.370;2022-07-23T10:33:12;22.80;99.90
9772;DHT22;4925;52.588;13.370;2022-07-23T10:36:18;22.80;99.90
9772;DHT22;4925;52.588;13.370;2022-07-23T10:38:54;23.10;99.90
9772;DHT22;4925;52.588;13.370;2022-07-23T10:41:51;22.50;99.90
9772;DHT22;4925;52.588;13.370;2022-07-23T10:44:19;23.40;99.90
9772;DHT22;4925;52.588;13.370;2022-07-23T10:47:03;23.50;99.90
9772;DHT22;4925;52.588;13.370;2022-07-23T10:49:50;23.80;99.90
9772;DHT22;4925;52.588;13.370;2022-07-23T10:52:18;23.90;99.90
9772;DHT22;4925;52.588;13.370;2022-07-23T10:54:45;24.00;99.90
9772;DHT22;4925;52.588;13.370;2022-07-23T10:57:11;24.30;99.90
9772;DHT22;4925;52.588;13.370;2022-07-23T11:02:39;24.70;99.90
9772;DHT22;4925;52.588;13.370;2022-07-23T11:05:10;24.70;99.90
9772;DHT22;4925;52.588;13.370;2022-07-23T11:08:12;24.90;99.90
9772;DHT22;4925;52.588;13.370;2022-07-23T11:10:43;25.00;99.90
9772;DHT22;4925;52.588;13.370;2022-07-23T11:23:59;26.00;96.50
9772;DHT22;4925;52.588;13.370;2022-07-23T11:34:47;25.40;99.90
9772;DHT22;4925;52.588;13.370;2022-07-23T11:37:34;25.20;99.90
9772;DHT22;4925;52.588;13.370;2022-07-23T11:40:02;25.20;99.90
9772;DHT22;4925;52.588;13.370;2022-07-23T11:42:29;25.30;99.90
9772;DHT22;4925;52.588;13.370;2022-07-23T11:44:54;25.40;99.80
9772;DHT22;4925;52.588;13.370;2022-07-23T11:47:25;25.70;99.40
9772;DHT22;4925;52.588;13.370;2022-07-23T11:49:58;26.30;98.60
9772;DHT22;4925;52.588;13.370;2022-07-23T11:52:25;26.70;97.00
9772;DHT22;4925;52.588;13.370;2022-07-23T11:54:55;27.20;96.20
9772;DHT22;4925;52.588;13.370;2022-07-23T11:57:25;27.30;94.20
9772;DHT22;4925;52.588;13.370;2022-07-23T11:59:57;27.10;93.00
9772;DHT22;4925;52.588;13.370;2022-07-23T12:02:23;27.00;93.10
9772;DHT22;4925;52.588;13.370;2022-07-23T12:04:51;26.70;93.30
9772;DHT22;4925;52.588;13.370;2022-07-23T12:07:37;26.20;93.50
9772;DHT22;4925;52.588;13.370;2022-07-23T12:10:16;25.80;94.60
9772;DHT22;4925;52.588;13.370;2022-07-23T12:15:15;26.40;93.80
9772;DHT22;4925;52.588;13.370;2022-07-23T12:17:46;25.90;93.50
9772;DHT22;4925;52.588;13.370;2022-07-23T12:20:16;25.90;94.00
9772;DHT22;4925;52.588;13.370;2022-07-23T12:22:47;25.00;95.80
9772;DHT22;4925;52.588;13.370;2022-07-23T12:25:21;25.00;96.20
9772;DHT22;4925;52.588;13.370;2022-07-23T12:27:59;24.80;96.20
9772;DHT22;4925;52.588;13.370;2022-07-23T12:30:28;24.50;96.70
9772;DHT22;4925;52.588;13.370;2022-07-23T12:32:56;24.30;97.50
9772;DHT22;4925;52.588;13.370;2022-07-23T12:35:23;24.30;98.00
9772;DHT22;4925;52.588;13.370;2022-07-23T12:37:50;24.60;98.20
9772;DHT22;4925;52.588;13.370;2022-07-23T12:40:33;25.00;97.10
9772;DHT22;4925;52.588;13.370;2022-07-23T12:45:27;25.40;95.20
9772;DHT22;4925;52.588;13.370;2022-07-23T12:48:01;25.20;95.80
9772;DHT22;4925;52.588;13.370;2022-07-23T12:53:41;24.90;96.20
9772;DHT22;4925;52.588;13.370;2022-07-23T12:56:12;24.50;96.70
9772;DHT22;4925;52.588;13.370;2022-07-23T12:58:49;24.40;98.00
9772;DHT22;4925;52.588;13.370;2022-07-23T13:04:18;24.80;97.40
9772;DHT22;4925;52.588;13.370;2022-07-23T13:06:56;25.10;96.50
9772;DHT22;4925;52.588;13.370;2022-07-23T13:09:28;25.60;96.40
9772;DHT22;4925;52.588;13.370;2022-07-23T13:11:55;25.70;96.70
9772;DHT22;4925;52.588;13.370;2022-07-23T13:14:21;25.60;95.70
9772;DHT22;4925;52.588;13.370;2022-07-23T13:16:49;25.40;96.30
9772;DHT22;4925;52.588;13.370;2022-07-23T13:19:15;25.40;96.20
9772;DHT22;4925;52.588;13.370;2022-07-23T13:21:41;25.50;95.70
9772;DHT22;4925;52.588;13.370;2022-07-23T13:24:08;25.60;95.50
9772;DHT22;4925;52.588;13.370;2022-07-23T13:26:34;25.60;95.30
9772;DHT22;4925;52.588;13.370;2022-07-23T13:29:01;25.40;94.80
9772;DHT22;4925;52.588;13.370;2022-07-23T13:31:26;25.40;95.10
9772;DHT22;4925;52.588;13.370;2022-07-23T13:33:52;25.50;95.40
9772;DHT22;4925;52.588;13.370;2022-07-23T13:36:17;25.50;94.50
9772;DHT22;4925;52.588;13.370;2022-07-23T13:38:43;25.30;94.60
9772;DHT22;4925;52.588;13.370;2022-07-23T13:41:08;25.30;94.80
9772;DHT22;4925;52.588;13.370;2022-07-23T13:43:34;25.40;95.10
9772;DHT22;4925;52.588;13.370;2022-07-23T13:46:00;25.40;95.00
9772;DHT22;4925;52.588;13.370;2022-07-23T13:48:25;25.50;94.60
9772;DHT22;4925;52.588;13.370;2022-07-23T13:50:51;25.60;94.30
9772;DHT22;4925;52.588;13.370;2022-07-23T13:53:22;25.70;94.10
9772;DHT22;4925;52.588;13.370;2022-07-23T13:55:49;25.70;93.90
9772;DHT22;4925;52.588;13.370;2022-07-23T13:58:16;25.60;94.00
9772;DHT22;4925;52.588;13.370;2022-07-23T14:00:44;25.50;94.30
9772;DHT22;4925;52.588;13.370;2022-07-23T14:03:10;25.40;94.80
9772;DHT22;4925;52.588;13.370;2022-07-23T14:05:36;25.30;94.10
9772;DHT22;4925;52.588;13.370;2022-07-23T14:08:02;25.30;94.70
9772;DHT22;4925;52.588;13.370;2022-07-23T14:10:29;25.30;94.70
9772;DHT22;4925;52.588;13.370;2022-07-23T14:12:54;25.30;95.10
9772;DHT22;4925;52.588;13.370;2022-07-23T14:15:26;25.40;93.70
9772;DHT22;4925;52.588;13.370;2022-07-23T14:17:52;25.50;94.10
9772;DHT22;4925;52.588;13.370;2022-07-23T14:20:18;25.40;94.10
9772;DHT22;4925;52.588;13.370;2022-07-23T14:22:44;25.40;93.50
9772;DHT22;4925;52.588;13.370;2022-07-23T14:25:11;25.30;94.00
9772;DHT22;4925;52.588;13.370;2022-07-23T14:27:37;25.20;94.10
9772;DHT22;4925;52.588;13.370;2022-07-23T14:30:07;25.00;94.10
9772;DHT22;4925;52.588;13.370;2022-07-23T14:32:33;24.90;93.90
9772;DHT22;4925;52.588;13.370;2022-07-23T14:34:58;24.70;93.90
9772;DHT22;4925;52.588;13.370;2022-07-23T14:37:24;24.70;94.30
9772;DHT22;4925;52.588;13.370;2022-07-23T14:39:50;24.60;93.80
9772;DHT22;4925;52.588;13.370;2022-07-23T14:42:16;24.50;94.80
9772;DHT22;4925;52.588;13.370;2022-07-23T14:44:41;24.50;93.20
9772;DHT22;4925;52.588;13.370;2022-07-23T14:47:08;24.40;93.70
9772;DHT22;4925;52.588;13.370;2022-07-23T14:49:34;24.40;93.80
9772;DHT22;4925;52.588;13.370;2022-07-23T14:52:00;24.40;93.40
9772;DHT22;4925;52.588;13.370;2022-07-23T14:54:26;24.60;93.40
9772;DHT22;4925;52.588;13.370;2022-07-23T14:56:54;24.80;93.30
9772;DHT22;4925;52.588;13.370;2022-07-23T14:59:19;25.40;93.20
9772;DHT22;4925;52.588;13.370;2022-07-23T15:01:45;25.10;92.60
9772;DHT22;4925;52.588;13.370;2022-07-23T15:04:11;24.40;92.20
9772;DHT22;4925;52.588;13.370;2022-07-23T15:06:36;25.00;92.50
9772;DHT22;4925;52.588;13.370;2022-07-23T15:09:03;24.80;92.70
9772;DHT22;4925;52.588;13.370;2022-07-23T15:11:29;24.80;93.00
9772;DHT22;4925;52.588;13.370;2022-07-23T15:13:57;24.80;93.10
9772;DHT22;4925;52.588;13.370;2022-07-23T15:16:23;24.80;92.00
9772;DHT22;4925;52.588;13.370;2022-07-23T15:18:48;24.90;91.80
9772;DHT22;4925;52.588;13.370;2022-07-23T15:21:14;25.00;92.20
9772;DHT22;4925;52.588;13.370;2022-07-23T15:23:40;25.00;91.70
9772;DHT22;4925;52.588;13.370;2022-07-23T15:26:07;25.10;91.50
9772;DHT22;4925;52.588;13.370;2022-07-23T15:28:34;25.00;90.90
9772;DHT22;4925;52.588;13.370;2022-07-23T15:31:00;24.90;91.30
9772;DHT22;4925;52.588;13.370;2022-07-23T15:33:27;24.80;91.80
9772;DHT22;4925;52.588;13.370;2022-07-23T15:35:53;24.70;90.90
9772;DHT22;4925;52.588;13.370;2022-07-23T15:38:21;24.50;91.20
9772;DHT22;4925;52.588;13.370;2022-07-23T15:40:47;24.40;91.60
9772;DHT22;4925;52.588;13.370;2022-07-23T15:43:12;24.40;91.60
9772;DHT22;4925;52.588;13.370;2022-07-23T15:45:39;24.30;91.80
9772;DHT22;4925;52.588;13.370;2022-07-23T15:48:05;24.40;91.50
9772;DHT22;4925;52.588;13.370;2022-07-23T15:50:30;24.50;91.10
9772;DHT22;4925;52.588;13.370;2022-07-23T15:52:56;24.50;91.10
9772;DHT22;4925;52.588;13.370;2022-07-23T15:55:22;25.10;90.30
9772;DHT22;4925;52.588;13.370;2022-07-23T15:57:48;24.30;90.10
9772;DHT22;4925;52.588;13.370;2022-07-23T16:00:14;24.10;90.30
9772;DHT22;4925;52.588;13.370;2022-07-23T16:02:39;24.20;90.50
9772;DHT22;4925;52.588;13.370;2022-07-23T16:05:05;24.30;90.80
9772;DHT22;4925;52.588;13.370;2022-07-23T16:07:49;24.30;90.20
9772;DHT22;4925;52.588;13.370;2022-07-23T16:10:15;24.40;90.90
9772;DHT22;4925;52.588;13.370;2022-07-23T16:12:40;24.50;91.40
9772;DHT22;4925;52.588;13.370;2022-07-23T16:15:06;24.60;90.70
9772;DHT22;4925;52.588;13.370;2022-07-23T16:17:33;24.60;90.90
9772;DHT22;4925;52.588;13.370;2022-07-23T16:19:58;24.70;90.90
9772;DHT22;4925;52.588;13.370;2022-07-23T16:22:24;24.80;90.70
9772;DHT22;4925;52.588;13.370;2022-07-23T16:24:49;24.90;89.80
9772;DHT22;4925;52.588;13.370;2022-07-23T16:27:15;24.90;89.20
9772;DHT22;4925;52.588;13.370;2022-07-23T16:29:41;24.90;89.00
9772;DHT22;4925;52.588;13.370;2022-07-23T16:32:06;25.00;89.80
9772;DHT22;4925;52.588;13.370;2022-07-23T16:34:32;24.90;88.00
9772;DHT22;4925;52.588;13.370;2022-07-23T16:36:57;24.90;87.60
9772;DHT22;4925;52.588;13.370;2022-07-23T16:41:49;24.50;87.30
9772;DHT22;4925;52.588;13.370;2022-07-23T16:44:14;24.40;88.30
9772;DHT22;4925;52.588;13.370;2022-07-23T16:46:40;24.50;88.90
9772;DHT22;4925;52.588;13.370;2022-07-23T16:49:06;24.60;89.10
9772;DHT22;4925;52.588;13.370;2022-07-23T16:51:31;24.60;88.30